Aeroporto :
LOGIN :

Iscrizione | Disclaimer

   EN    FR    IT 

 










Sommario :    VFR   VFR Marginale   IFR   IFR Intensivo   IFR Molto Intensivo
Visibilità : 
Base nubi : 
>= 8 km
>= 3000ft
5 / 8 km
1000 / 3000 ft
1500m / 5 km
500 / 1000 ft
800 / 1500m
200 / 500 ft
< 800m
< 200 ft
Simboli :   Temporali  Nebbia  Neve Forte  Precipitazioni Forti  Vento > 20 kt
SIGMETs :   Varie  Temporali  Ghiacco  Turbolenza  Onda orograficha  Ceneri Vulcaniche






- Altitudine del aeroporto : 204 ft
- Codice IATA : AGF


LFBA - Agen

ULTIMO METAR :
  • 290930Z AUTO 29008KT 260V330 7000 NSC 10/06 Q1020

METARs OBSOLETI :
  • 290900Z AUTO 30007KT 270V330 6000 NSC 10/06 Q1020
  • 290830Z AUTO 28007KT 260V320 8000 3600 NSC 09/07 Q1020
  • 290800Z AUTO 28007KT 250V310 8000 NSC 08/07 Q1020
  • 290730Z AUTO 27004KT 240V310 6000 NSC 08/06 Q1019
  • 290700Z AUTO 28003KT 250V310 5000 BR NSC 06/04 Q1019

Previsioni scadute.



MetMap, La meteo Aeronautica in un colpo d'occhio ! - Copyright ORBIFLY Dicembre 2007 - Disclaimer

ORBIFLY MET'MAP TEAM :

Programmazione e sviluppo : Alexandra Zaïnal
Concezione : Baudouin d'Aumeries
Aiuto per la programmazione : Marc-Olivier Méhu
Supporto tecnico e logistico : Manuel Goepfert
Aiuto per la traduzione : Arnaldo La Scala

Contatto : metmap@orbifly.com




FONTI E CREDITI :

   NOAA